createdAt,value
2024-04-05T00:00:16.191Z,20.70
2024-04-05T00:01:16.186Z,21.30
2024-04-05T00:02:16.189Z,20.40
2024-04-05T00:03:16.202Z,20.60
2024-04-05T00:04:16.180Z,20.70
2024-04-05T00:05:16.179Z,20.70
2024-04-05T00:06:16.176Z,20.70
2024-04-05T00:07:16.188Z,21.20
2024-04-05T00:08:16.174Z,20.90
2024-04-05T00:09:16.174Z,20.80
2024-04-05T00:10:16.164Z,21.60
2024-04-05T00:11:16.166Z,20.90
2024-04-05T00:12:16.166Z,20.90
2024-04-05T00:13:16.164Z,21.50
2024-04-05T00:14:16.155Z,20.60
2024-04-05T00:15:16.174Z,20.90
2024-04-05T00:16:16.149Z,22.00
2024-04-05T00:17:16.146Z,21.00
2024-04-05T00:18:16.143Z,20.70
2024-04-05T00:19:16.164Z,21.20
2024-04-05T00:20:16.151Z,20.90
2024-04-05T00:21:16.147Z,21.20
2024-04-05T00:22:16.144Z,21.00
2024-04-05T00:23:16.137Z,20.40
2024-04-05T00:24:16.134Z,20.40
2024-04-05T00:25:16.136Z,20.70
2024-04-05T00:26:16.129Z,21.00
2024-04-05T00:27:16.194Z,20.70
2024-04-05T00:28:16.133Z,20.50
2024-04-05T00:29:16.126Z,20.90
2024-04-05T00:30:16.141Z,20.30
2024-04-05T00:31:16.131Z,19.80
2024-04-05T00:32:16.122Z,20.00
2024-04-05T00:33:16.117Z,19.50
2024-04-05T00:34:16.129Z,19.70
2024-04-05T00:35:16.114Z,20.20
2024-04-05T00:36:16.131Z,20.10
2024-04-05T00:37:16.117Z,20.20
2024-04-05T00:38:16.103Z,20.70
2024-04-05T00:39:16.099Z,20.20
2024-04-05T00:40:16.098Z,21.00
2024-04-05T00:41:16.109Z,20.20
2024-04-05T00:42:16.093Z,20.80
2024-04-05T00:43:16.090Z,20.90
2024-04-05T00:44:16.102Z,21.00
2024-04-05T00:45:16.089Z,21.60
2024-04-05T00:46:16.087Z,21.40
2024-04-05T00:47:16.106Z,21.20
2024-04-05T00:48:16.084Z,20.90
2024-04-05T00:49:16.079Z,21.40
2024-04-05T00:50:16.075Z,21.10
2024-04-05T00:51:16.081Z,21.00
2024-04-05T00:52:16.090Z,20.70
2024-04-05T00:53:16.073Z,20.50
2024-04-05T00:54:16.073Z,20.50
2024-04-05T00:55:16.069Z,20.50
2024-04-05T00:56:16.074Z,20.50
2024-04-05T00:57:16.066Z,21.10
2024-04-05T00:58:16.065Z,21.60
2024-04-05T00:59:16.058Z,20.70
2024-04-05T01:00:16.058Z,21.10
2024-04-05T01:01:16.065Z,20.90
2024-04-05T01:02:16.059Z,20.00
2024-04-05T01:03:16.062Z,20.10
2024-04-05T01:04:16.106Z,19.80
2024-04-05T01:05:16.045Z,19.70
2024-04-05T01:06:16.041Z,20.20
2024-04-05T01:07:16.042Z,20.00
2024-04-05T01:08:16.040Z,19.70
2024-04-05T01:09:16.033Z,20.10
2024-04-05T01:10:16.037Z,20.40
2024-04-05T01:11:16.039Z,20.40
2024-04-05T01:12:16.028Z,20.50
2024-04-05T01:13:16.029Z,20.10
2024-04-05T01:14:16.028Z,20.50
2024-04-05T01:15:16.026Z,20.30
2024-04-05T01:16:16.028Z,20.70
2024-04-05T01:17:16.022Z,20.60
2024-04-05T01:18:16.020Z,20.50
2024-04-05T01:19:16.027Z,20.70
2024-04-05T01:20:16.014Z,20.70
2024-04-05T01:21:16.006Z,20.80
2024-04-05T01:22:16.016Z,20.20
2024-04-05T01:23:16.014Z,20.80
2024-04-05T01:24:16.012Z,20.10
2024-04-05T01:25:16.006Z,20.40
2024-04-05T01:26:16.004Z,20.70
2024-04-05T01:27:16.009Z,21.00
2024-04-05T01:28:16.003Z,20.50
2024-04-05T01:29:15.999Z,20.50
2024-04-05T01:30:15.990Z,20.30
2024-04-05T01:31:15.987Z,19.60
2024-04-05T01:32:15.998Z,19.80
2024-04-05T01:33:15.987Z,19.90
2024-04-05T01:34:15.983Z,19.70
2024-04-05T01:35:15.992Z,19.40
2024-04-05T01:36:15.982Z,19.80
2024-04-05T01:37:15.980Z,19.50
2024-04-05T01:38:15.974Z,19.30
2024-04-05T01:39:15.975Z,19.60
2024-04-05T01:40:15.989Z,19.60
2024-04-05T01:41:15.964Z,19.20
2024-04-05T01:42:15.966Z,19.30
2024-04-05T01:43:15.963Z,19.30
2024-04-05T01:44:15.963Z,19.10
2024-04-05T01:45:15.975Z,19.30
2024-04-05T01:46:15.955Z,19.20
2024-04-05T01:47:15.955Z,18.80
2024-04-05T01:48:15.953Z,19.00
2024-04-05T01:49:15.954Z,19.00
2024-04-05T01:50:15.944Z,19.30
2024-04-05T01:51:15.960Z,19.10
2024-04-05T01:52:15.944Z,19.90
2024-04-05T01:53:15.939Z,19.10
2024-04-05T01:54:15.936Z,19.10
2024-04-05T01:55:15.944Z,19.00
2024-04-05T01:56:15.931Z,19.80
2024-04-05T01:57:15.953Z,19.30
2024-04-05T01:58:15.928Z,19.60
2024-04-05T01:59:15.924Z,20.70
2024-04-05T02:00:15.934Z,19.70
2024-04-05T02:01:15.925Z,19.60
2024-04-05T02:02:15.917Z,19.50
2024-04-05T02:03:15.920Z,18.60
2024-04-05T02:04:15.917Z,19.20
2024-04-05T02:05:15.915Z,19.00
2024-04-05T02:06:15.924Z,19.10
2024-04-05T02:07:15.925Z,18.90
2024-04-05T02:08:15.903Z,18.90
2024-04-05T02:09:15.908Z,18.50
2024-04-05T02:10:15.901Z,18.00
2024-04-05T02:11:15.900Z,18.40
2024-04-05T02:12:15.904Z,18.90
2024-04-05T02:13:15.897Z,18.70
2024-04-05T02:14:15.911Z,18.40
2024-04-05T02:15:15.890Z,18.40
2024-04-05T02:16:15.899Z,18.60
2024-04-05T02:17:15.904Z,18.80
2024-04-05T02:18:15.888Z,18.70
2024-04-05T02:19:15.891Z,19.10
2024-04-05T02:20:15.884Z,18.20
2024-04-05T02:21:15.895Z,19.20
2024-04-05T02:22:15.876Z,18.50
2024-04-05T02:23:15.890Z,19.20
2024-04-05T02:24:15.873Z,18.20
2024-04-05T02:25:15.864Z,18.50
2024-04-05T02:26:15.867Z,19.00
2024-04-05T02:27:15.862Z,18.90
2024-04-05T02:28:15.866Z,19.00
2024-04-05T02:29:15.866Z,18.70
2024-04-05T02:30:15.860Z,19.00
2024-04-05T02:31:15.850Z,19.10
2024-04-05T02:32:15.853Z,18.30
2024-04-05T02:33:15.862Z,18.30
2024-04-05T02:34:15.846Z,18.10
2024-04-05T02:35:15.840Z,18.40
2024-04-05T02:36:15.841Z,17.80
2024-04-05T02:37:15.841Z,18.00
2024-04-05T02:38:15.840Z,18.20
2024-04-05T02:39:15.909Z,17.50
2024-04-05T02:40:15.835Z,17.60
2024-04-05T02:41:15.831Z,17.90
2024-04-05T02:42:15.831Z,17.90
2024-04-05T02:43:15.833Z,17.90
2024-04-05T02:44:15.825Z,18.50
2024-04-05T02:45:15.827Z,17.70
2024-04-05T02:46:15.823Z,17.80
2024-04-05T02:47:15.822Z,18.50
2024-04-05T02:48:15.814Z,18.40
2024-04-05T02:49:15.816Z,17.70
2024-04-05T02:50:15.812Z,17.70
2024-04-05T02:51:15.815Z,16.70
2024-04-05T02:52:15.836Z,17.10
2024-04-05T02:53:15.808Z,17.20
2024-04-05T02:54:18.964Z,16.70
2024-04-05T02:55:15.815Z,17.10
2024-04-05T02:56:15.807Z,16.90
2024-04-05T02:57:15.799Z,18.20
2024-04-05T02:58:15.796Z,17.50
2024-04-05T02:59:15.792Z,16.80
2024-04-05T03:00:15.791Z,17.20
2024-04-05T03:01:15.790Z,17.20
2024-04-05T03:02:15.784Z,17.20
2024-04-05T03:03:15.785Z,17.10
2024-04-05T03:04:15.790Z,17.20
2024-04-05T03:05:15.780Z,17.40
2024-04-05T03:06:15.774Z,17.60
2024-04-05T03:07:15.771Z,17.70
2024-04-05T03:08:15.781Z,17.50
2024-04-05T03:09:15.767Z,17.40
2024-04-05T03:10:15.767Z,17.30
2024-04-05T03:11:15.785Z,17.30
2024-04-05T03:12:15.763Z,17.60
2024-04-05T03:13:15.759Z,17.90
2024-04-05T03:14:15.760Z,17.80
2024-04-05T03:15:15.759Z,17.80
2024-04-05T03:16:15.759Z,17.60
2024-04-05T03:17:15.754Z,17.90
2024-04-05T03:18:15.758Z,18.50
2024-04-05T03:19:15.744Z,18.70
2024-04-05T03:20:15.745Z,17.70
2024-04-05T03:21:15.744Z,17.70
2024-04-05T03:22:15.756Z,17.70
2024-04-05T03:23:15.737Z,17.70
2024-04-05T03:24:15.757Z,18.10
2024-04-05T03:25:15.739Z,17.30
2024-04-05T03:26:15.744Z,17.20
2024-04-05T03:27:15.748Z,17.40
2024-04-05T03:28:15.734Z,17.80
2024-04-05T03:29:15.733Z,17.50
2024-04-05T03:30:15.725Z,17.80
2024-04-05T03:31:15.728Z,17.50
2024-04-05T03:32:15.734Z,17.40
2024-04-05T03:33:15.717Z,16.90
2024-04-05T03:34:15.717Z,16.70
2024-04-05T03:35:15.761Z,16.90
2024-04-05T03:36:15.725Z,17.50
2024-04-05T03:37:15.711Z,17.10
2024-04-05T03:39:14.587Z,17.40
2024-04-05T03:39:15.712Z,17.30
2024-04-05T03:40:15.708Z,17.40
2024-04-05T03:41:15.703Z,17.30
2024-04-05T03:42:15.699Z,17.20
2024-04-05T03:43:15.715Z,17.00
2024-04-05T03:44:15.727Z,17.10
2024-04-05T03:45:15.701Z,16.90
2024-04-05T03:46:15.686Z,16.90
2024-04-05T03:47:15.689Z,17.30
2024-04-05T03:48:15.690Z,16.90
2024-04-05T03:49:15.687Z,17.10
2024-04-05T03:50:15.681Z,16.60
2024-04-05T03:51:15.683Z,16.90
2024-04-05T03:52:15.676Z,16.60
2024-04-05T03:53:15.677Z,17.30
2024-04-05T03:54:15.671Z,16.70
2024-04-05T03:55:15.677Z,16.90
2024-04-05T03:56:15.681Z,16.30
2024-04-05T03:57:15.662Z,16.60
2024-04-05T03:58:15.662Z,17.10
2024-04-05T03:59:15.679Z,17.60
2024-04-05T04:00:15.663Z,17.40
2024-04-05T04:01:15.658Z,17.00
2024-04-05T04:02:15.656Z,16.90
2024-04-05T04:03:15.653Z,16.80
2024-04-05T04:04:15.650Z,16.80
2024-04-05T04:05:15.659Z,17.10
2024-04-05T04:06:15.648Z,17.00
2024-04-05T04:07:15.643Z,17.00
2024-04-05T04:08:15.647Z,17.00
2024-04-05T04:09:15.643Z,17.30
2024-04-05T04:10:15.643Z,17.00
2024-04-05T04:11:15.632Z,17.10
2024-04-05T04:12:15.639Z,16.80
2024-04-05T04:13:15.633Z,17.10
2024-04-05T04:14:15.626Z,17.10
2024-04-05T04:15:15.637Z,17.20
2024-04-05T04:16:18.521Z,16.70
2024-04-05T04:17:15.629Z,17.10
2024-04-05T04:18:15.622Z,17.60
2024-04-05T04:19:15.618Z,17.00
2024-04-05T04:20:15.615Z,17.30
2024-04-05T04:21:15.622Z,17.10
2024-04-05T04:22:15.624Z,16.90
2024-04-05T04:23:15.617Z,17.00
2024-04-05T04:24:15.623Z,17.20
2024-04-05T04:25:15.605Z,16.90
2024-04-05T04:26:15.605Z,17.10
2024-04-05T04:27:15.614Z,16.80
2024-04-05T04:28:15.924Z,17.10
2024-04-05T04:29:15.598Z,17.30
2024-04-05T04:30:15.592Z,17.60
2024-04-05T04:31:15.604Z,17.20
2024-04-05T04:32:15.597Z,16.90
2024-04-05T04:33:15.584Z,17.50
2024-04-05T04:34:15.593Z,17.40
2024-04-05T04:35:15.582Z,17.30
2024-04-05T04:36:15.596Z,16.70
2024-04-05T04:37:15.573Z,17.00
2024-04-05T04:38:15.897Z,17.20
2024-04-05T04:39:15.575Z,17.00
2024-04-05T04:40:15.575Z,16.90
2024-04-05T04:41:15.596Z,16.80
2024-04-05T04:42:15.571Z,16.50
2024-04-05T04:43:15.561Z,16.50
2024-04-05T04:44:15.568Z,16.40
2024-04-05T04:45:15.560Z,16.70
2024-04-05T04:46:15.556Z,16.40
2024-04-05T04:47:15.572Z,16.60
2024-04-05T04:48:15.547Z,16.80
2024-04-05T04:49:15.553Z,16.40
2024-04-05T04:50:15.554Z,16.10
2024-04-05T04:51:15.541Z,16.10
2024-04-05T04:52:15.542Z,16.10
2024-04-05T04:53:15.539Z,17.10
2024-04-05T04:54:15.542Z,16.40
2024-04-05T04:55:15.535Z,16.90
2024-04-05T04:56:15.544Z,17.50
2024-04-05T04:57:15.526Z,17.00
2024-04-05T04:58:15.525Z,17.10
2024-04-05T04:59:15.529Z,17.40
2024-04-05T05:00:15.528Z,16.50
2024-04-05T05:01:15.521Z,17.10
2024-04-05T05:02:15.520Z,16.90
2024-04-05T05:03:15.531Z,16.40
2024-04-05T05:04:15.521Z,16.80
2024-04-05T05:05:15.515Z,17.20
2024-04-05T05:06:15.512Z,17.10
2024-04-05T05:07:15.510Z,16.30
2024-04-05T05:08:15.704Z,17.20
2024-04-05T05:09:15.510Z,16.80
2024-04-05T05:10:15.527Z,16.50
2024-04-05T05:11:15.518Z,16.30
2024-04-05T05:12:15.518Z,16.30
2024-04-05T05:13:15.507Z,18.00
2024-04-05T05:14:15.493Z,17.70
2024-04-05T05:15:15.492Z,17.80
2024-04-05T05:16:15.492Z,17.70
2024-04-05T05:17:15.493Z,17.30
2024-04-05T05:18:15.486Z,18.40
2024-04-05T05:19:15.510Z,18.20
2024-04-05T05:20:15.486Z,17.90
2024-04-05T05:21:15.479Z,17.40
2024-04-05T05:22:15.483Z,17.30
2024-04-05T05:23:15.470Z,17.50
2024-04-05T05:24:15.487Z,19.10
2024-04-05T05:25:15.475Z,17.10
2024-04-05T05:26:15.486Z,17.60
2024-04-05T05:27:15.462Z,17.60
2024-04-05T05:28:15.461Z,18.30
2024-04-05T05:29:15.462Z,17.40
2024-04-05T05:30:15.455Z,18.30
2024-04-05T05:31:15.451Z,17.60
2024-04-05T05:32:15.455Z,17.70
2024-04-05T05:33:15.462Z,17.80
2024-04-05T05:34:15.447Z,18.00
2024-04-05T05:35:15.445Z,17.60
2024-04-05T05:36:15.444Z,17.80
2024-04-05T05:37:15.454Z,18.40
2024-04-05T05:38:15.447Z,16.80
2024-04-05T05:39:15.440Z,17.50
2024-04-05T05:40:15.450Z,17.80
2024-04-05T05:41:15.436Z,17.50
2024-04-05T05:42:15.434Z,17.40
2024-04-05T05:43:15.431Z,16.90
2024-04-05T05:44:15.429Z,16.80
2024-04-05T05:45:15.430Z,16.60
2024-04-05T05:46:15.437Z,16.80
2024-04-05T05:47:15.433Z,16.90
2024-04-05T05:48:15.417Z,17.20
2024-04-05T05:49:15.416Z,17.10
2024-04-05T05:50:15.411Z,16.60
2024-04-05T05:51:15.433Z,16.20
2024-04-05T05:52:15.411Z,16.70
2024-04-05T05:53:15.406Z,16.20
2024-04-05T05:54:15.399Z,16.50
2024-04-05T05:55:15.406Z,17.00
2024-04-05T05:56:15.402Z,16.90
2024-04-05T05:57:15.394Z,16.30
2024-04-05T05:58:15.393Z,16.70
2024-04-05T05:59:15.392Z,16.80
2024-04-05T06:00:15.391Z,16.10
2024-04-05T06:01:15.385Z,16.70
2024-04-05T06:02:15.386Z,16.80
2024-04-05T06:03:15.386Z,17.40
2024-04-05T06:04:15.378Z,16.40
2024-04-05T06:05:15.374Z,16.50
2024-04-05T06:06:15.374Z,17.10
2024-04-05T06:07:15.385Z,17.50
2024-04-05T06:08:15.373Z,17.00
2024-04-05T06:09:15.373Z,16.90
2024-04-05T06:10:15.365Z,17.10
2024-04-05T06:11:15.371Z,16.20
2024-04-05T06:12:15.360Z,15.90
2024-04-05T06:13:15.364Z,15.90
2024-04-05T06:14:15.357Z,16.20
2024-04-05T06:15:15.356Z,15.90
2024-04-05T06:16:15.354Z,16.50
2024-04-05T06:17:15.348Z,16.00
2024-04-05T06:18:15.356Z,16.10
2024-04-05T06:19:15.350Z,15.90
2024-04-05T06:20:15.352Z,16.10
2024-04-05T06:21:15.347Z,16.50
2024-04-05T06:22:15.347Z,16.40
2024-04-05T06:23:15.361Z,16.10
2024-04-05T06:24:15.342Z,17.10
2024-04-05T06:25:15.338Z,15.90
2024-04-05T06:26:15.346Z,16.50
2024-04-05T06:27:15.330Z,16.30
2024-04-05T06:28:15.344Z,16.30
2024-04-05T06:29:15.344Z,16.50
2024-04-05T06:30:15.330Z,16.50
2024-04-05T06:31:15.329Z,16.30
2024-04-05T06:32:15.319Z,16.20
2024-04-05T06:33:15.323Z,16.10
2024-04-05T06:34:15.321Z,16.50
2024-04-05T06:35:15.317Z,15.90
2024-04-05T06:36:15.324Z,16.60
2024-04-05T06:37:15.327Z,16.50
2024-04-05T06:38:15.320Z,16.20
2024-04-05T06:39:15.328Z,16.80
2024-04-05T06:40:15.306Z,16.80
2024-04-05T06:41:15.304Z,16.60
2024-04-05T06:42:15.307Z,16.50
2024-04-05T06:43:15.301Z,16.60
2024-04-05T06:44:15.304Z,16.60
2024-04-05T06:45:15.295Z,16.70
2024-04-05T06:46:15.293Z,16.40
2024-04-05T06:47:15.305Z,15.80
2024-04-05T06:48:15.288Z,16.00
2024-04-05T06:49:15.294Z,16.00
2024-04-05T06:50:15.291Z,16.60
2024-04-05T06:51:15.291Z,15.90
2024-04-05T06:52:15.293Z,16.30
2024-04-05T06:53:15.306Z,16.60
2024-04-05T06:54:15.285Z,16.10
2024-04-05T06:55:15.341Z,16.60
2024-04-05T06:56:15.285Z,16.60
2024-04-05T06:57:15.286Z,16.40
2024-04-05T06:58:15.277Z,16.00
2024-04-05T06:59:15.287Z,17.10
2024-04-05T07:00:15.290Z,16.30
2024-04-05T07:01:15.276Z,16.10
2024-04-05T07:02:15.275Z,16.30
2024-04-05T07:03:15.269Z,16.50
2024-04-05T07:04:15.269Z,16.50
2024-04-05T07:05:15.280Z,16.90
2024-04-05T07:06:15.276Z,16.60
2024-04-05T07:07:15.263Z,16.00
2024-04-05T07:08:15.260Z,16.00
2024-04-05T07:09:15.262Z,16.00
2024-04-05T07:10:15.838Z,16.20
2024-04-05T07:11:15.274Z,16.50
2024-04-05T07:12:15.263Z,16.10
2024-04-05T07:13:15.348Z,16.60
2024-04-05T07:14:15.260Z,16.90
2024-04-05T07:15:15.305Z,16.50
2024-04-05T07:16:15.257Z,16.40
2024-04-05T07:17:15.254Z,16.50
2024-04-05T07:18:15.253Z,16.60
2024-04-05T07:19:15.260Z,16.80
2024-04-05T07:20:15.248Z,16.50
2024-04-05T07:21:15.254Z,16.50
2024-04-05T07:22:15.252Z,16.70
2024-04-05T07:23:15.243Z,16.20
2024-04-05T07:24:15.254Z,16.50
2024-04-05T07:25:15.266Z,16.30
2024-04-05T07:26:15.251Z,16.50
2024-04-05T07:27:15.260Z,16.50
2024-04-05T07:28:15.255Z,16.70
2024-04-05T07:29:15.246Z,16.20
2024-04-05T07:30:15.255Z,16.70
2024-04-05T07:31:15.265Z,16.90
2024-04-05T07:32:15.257Z,17.00
2024-04-05T07:33:15.251Z,17.20
2024-04-05T07:34:15.254Z,18.10
2024-04-05T07:35:15.250Z,17.10
2024-04-05T07:36:15.261Z,17.70
2024-04-05T07:37:15.256Z,17.20
2024-04-05T07:38:15.253Z,17.10
2024-04-05T07:39:15.258Z,17.20
2024-04-05T07:40:15.273Z,17.10
2024-04-05T07:41:15.256Z,16.80
2024-04-05T07:42:15.256Z,16.90
2024-04-05T07:43:15.267Z,17.20
2024-04-05T07:44:15.262Z,16.80
2024-04-05T07:45:15.262Z,16.90
2024-04-05T07:46:15.271Z,17.20
2024-04-05T07:47:15.261Z,17.00
2024-04-05T07:48:15.264Z,16.80
2024-04-05T07:49:15.269Z,17.00
2024-04-05T07:50:15.274Z,17.60
2024-04-05T07:51:15.278Z,17.50
2024-04-05T07:52:15.270Z,17.40
2024-04-05T07:53:15.276Z,17.70
2024-04-05T07:54:15.273Z,17.50
2024-04-05T07:55:15.277Z,17.60
2024-04-05T07:56:15.283Z,17.20
2024-04-05T07:57:15.280Z,17.90
2024-04-05T07:58:15.284Z,17.00
2024-04-05T07:59:15.299Z,17.20
2024-04-05T08:00:15.295Z,17.00
2024-04-05T08:01:15.287Z,16.70
2024-04-05T08:02:15.297Z,17.00
2024-04-05T08:03:15.289Z,16.60
2024-04-05T08:04:15.293Z,17.20
2024-04-05T08:05:15.296Z,17.40
2024-04-05T08:06:15.292Z,17.50
2024-04-05T08:07:15.299Z,17.70
2024-04-05T08:08:15.303Z,16.80
2024-04-05T08:09:15.300Z,17.20
2024-04-05T08:10:15.311Z,17.60
2024-04-05T08:11:15.332Z,17.60
2024-04-05T08:12:15.308Z,18.00
2024-04-05T08:13:15.308Z,17.40
2024-04-05T08:14:15.304Z,17.50
2024-04-05T08:15:15.328Z,18.10
2024-04-05T08:16:15.315Z,17.50
2024-04-05T08:17:15.308Z,17.00
2024-04-05T08:18:15.312Z,17.60
2024-04-05T08:19:15.315Z,18.50
2024-04-05T08:20:15.309Z,16.90
2024-04-05T08:21:15.317Z,16.90
2024-04-05T08:22:15.316Z,17.00
2024-04-05T08:23:15.328Z,17.10
2024-04-05T08:24:15.322Z,17.50
2024-04-05T08:25:15.324Z,17.30
2024-04-05T08:26:15.317Z,17.20
2024-04-05T08:27:15.317Z,16.60
2024-04-05T08:28:15.322Z,16.80
2024-04-05T08:29:15.321Z,16.90
2024-04-05T08:30:15.322Z,17.00
2024-04-05T08:31:15.346Z,17.20
2024-04-05T08:32:15.327Z,17.30
2024-04-05T08:33:15.330Z,17.60
2024-04-05T08:34:15.341Z,17.30
2024-04-05T08:35:15.327Z,16.50
2024-04-05T08:36:15.340Z,16.40
2024-04-05T08:37:15.323Z,16.80
2024-04-05T08:38:15.321Z,16.60
2024-04-05T08:39:15.336Z,16.40
2024-04-05T08:40:15.331Z,15.30
2024-04-05T08:41:15.323Z,14.80
2024-04-05T08:42:15.324Z,16.60
2024-04-05T08:43:15.325Z,15.30
2024-04-05T08:44:15.328Z,15.10
2024-04-05T08:45:15.325Z,15.10
2024-04-05T08:46:15.327Z,15.60
2024-04-05T08:47:15.411Z,16.90
2024-04-05T08:48:15.326Z,15.50
2024-04-05T08:49:15.328Z,15.50
2024-04-05T08:50:15.332Z,15.60
2024-04-05T08:51:15.328Z,16.00
2024-04-05T08:52:15.333Z,16.20
2024-04-05T08:53:17.853Z,17.00
2024-04-05T08:54:15.330Z,16.00
2024-04-05T08:55:15.335Z,15.60
2024-04-05T08:56:15.329Z,15.90
2024-04-05T08:57:15.339Z,15.90
2024-04-05T08:58:15.330Z,15.50
2024-04-05T08:59:15.331Z,15.20
2024-04-05T09:00:15.326Z,15.60
2024-04-05T09:01:15.328Z,15.60
2024-04-05T09:02:15.340Z,16.10
2024-04-05T09:03:15.361Z,16.40
2024-04-05T09:04:15.330Z,18.60
2024-04-05T09:05:15.330Z,17.30
2024-04-05T09:06:15.324Z,17.50
2024-04-05T09:07:15.327Z,17.40
2024-04-05T09:08:15.338Z,17.00
2024-04-05T09:09:15.329Z,17.20
2024-04-05T09:10:15.329Z,17.60
2024-04-05T09:11:15.329Z,17.40
2024-04-05T09:12:15.334Z,17.40
2024-04-05T09:13:15.338Z,17.60
2024-04-05T09:14:15.331Z,17.90
2024-04-05T09:15:15.334Z,17.30
2024-04-05T09:16:15.347Z,17.80
2024-04-05T09:17:15.339Z,17.40
2024-04-05T09:18:15.343Z,17.50
2024-04-05T09:19:15.364Z,17.20
2024-04-05T09:20:15.353Z,17.60
2024-04-05T09:21:15.346Z,16.90
2024-04-05T09:22:15.358Z,17.20
2024-04-05T09:23:15.360Z,17.10
2024-04-05T09:24:15.361Z,17.10
2024-04-05T09:25:15.365Z,17.50
2024-04-05T09:26:15.362Z,18.00
2024-04-05T09:27:15.368Z,17.00
2024-04-05T09:28:15.371Z,17.90
2024-04-05T09:29:15.378Z,17.60
2024-04-05T09:30:15.374Z,17.90
2024-04-05T09:31:15.382Z,17.00
2024-04-05T09:32:15.385Z,17.40
2024-04-05T09:33:15.387Z,16.60
2024-04-05T09:34:15.394Z,17.50
2024-04-05T09:35:15.401Z,17.20
2024-04-05T09:36:15.401Z,17.20
2024-04-05T09:37:15.420Z,16.80
2024-04-05T09:38:15.408Z,17.20
2024-04-05T09:39:15.404Z,17.50
2024-04-05T09:40:15.416Z,17.20
2024-04-05T09:41:15.448Z,17.00
2024-04-05T09:42:15.416Z,16.80
2024-04-05T09:43:15.422Z,16.90
2024-04-05T09:44:21.431Z,17.10
2024-04-05T09:45:15.432Z,17.20
2024-04-05T09:46:15.426Z,17.60
2024-04-05T09:47:15.428Z,16.90
2024-04-05T09:48:15.433Z,16.90
2024-04-05T09:49:15.434Z,17.50
2024-04-05T09:50:15.434Z,17.20
2024-04-05T09:51:15.447Z,18.20
2024-04-05T09:52:15.435Z,17.90
2024-04-05T09:53:15.442Z,17.00
2024-04-05T09:54:15.446Z,16.90
2024-04-05T09:55:15.445Z,17.20
2024-04-05T09:56:15.446Z,17.10
2024-04-05T09:57:15.445Z,17.30
2024-04-05T09:58:15.447Z,17.70
2024-04-05T09:59:15.449Z,17.10
2024-04-05T10:00:15.454Z,17.60
2024-04-05T10:01:15.455Z,17.60
2024-04-05T10:02:15.453Z,17.40
2024-04-05T10:03:15.459Z,17.20
2024-04-05T10:04:15.464Z,17.20
2024-04-05T10:05:15.517Z,17.40
2024-04-05T10:06:15.461Z,18.00
2024-04-05T10:07:15.470Z,17.90
2024-04-05T10:08:15.453Z,17.60
2024-04-05T10:09:15.465Z,17.20
2024-04-05T10:10:15.467Z,17.70
2024-04-05T10:11:15.537Z,17.60
2024-04-05T10:12:15.647Z,17.90
2024-04-05T10:13:15.455Z,17.50
2024-04-05T10:14:15.470Z,16.60
2024-04-05T10:15:15.459Z,16.30
2024-04-05T10:16:15.463Z,17.60
2024-04-05T10:17:15.465Z,16.40
2024-04-05T10:18:15.472Z,16.70
2024-04-05T10:19:15.461Z,17.00
2024-04-05T10:20:15.500Z,16.60
2024-04-05T10:21:15.457Z,17.10
2024-04-05T10:22:15.461Z,17.00
2024-04-05T10:23:15.486Z,17.30
2024-04-05T10:24:15.465Z,17.20
2024-04-05T10:25:15.477Z,17.40
2024-04-05T10:26:15.469Z,17.30
2024-04-05T10:27:15.467Z,17.60
2024-04-05T10:28:15.466Z,16.70
2024-04-05T10:29:15.467Z,17.40
2024-04-05T10:30:15.480Z,17.00
2024-04-05T10:31:15.469Z,17.50
2024-04-05T10:32:15.476Z,17.50
2024-04-05T10:33:15.486Z,17.00
2024-04-05T10:34:15.489Z,17.90
2024-04-05T10:35:15.537Z,17.90
2024-04-05T10:36:15.493Z,17.10
2024-04-05T10:37:15.503Z,17.70
2024-04-05T10:38:24.174Z,17.10
2024-04-05T10:39:15.515Z,17.80
2024-04-05T10:40:15.507Z,17.70
2024-04-05T10:41:15.512Z,18.10
2024-04-05T10:42:15.518Z,17.30
2024-04-05T10:43:15.515Z,18.00
2024-04-05T10:44:15.528Z,17.30
2024-04-05T10:45:15.530Z,17.60
2024-04-05T10:46:15.533Z,17.20
2024-04-05T10:47:15.566Z,17.30
2024-04-05T10:48:15.542Z,17.70
2024-04-05T10:49:15.554Z,17.30
2024-04-05T10:50:15.557Z,17.20
2024-04-05T10:51:15.560Z,17.60
2024-04-05T10:52:15.561Z,17.80
2024-04-05T10:53:15.569Z,17.40
2024-04-05T10:54:15.581Z,17.60
2024-04-05T10:55:15.605Z,18.50
2024-04-05T10:56:15.588Z,17.70
2024-04-05T10:57:15.587Z,17.70
2024-04-05T10:58:15.598Z,17.40
2024-04-05T10:59:15.594Z,17.40
2024-04-05T11:00:15.599Z,17.50
2024-04-05T11:01:15.617Z,17.00
2024-04-05T11:02:15.626Z,16.80
2024-04-05T11:03:15.609Z,16.30
2024-04-05T11:04:15.616Z,16.60
2024-04-05T11:05:15.677Z,15.70
2024-04-05T11:06:15.948Z,16.70
2024-04-05T11:07:15.625Z,17.20
2024-04-05T11:08:15.627Z,17.90
2024-04-05T11:09:15.630Z,17.40
2024-04-05T11:10:26.598Z,18.00
2024-04-05T11:11:15.663Z,17.90
2024-04-05T11:12:15.637Z,17.70
2024-04-05T11:13:15.643Z,18.50
2024-04-05T11:14:15.645Z,18.60
2024-04-05T11:15:15.648Z,18.10
2024-04-05T11:16:15.655Z,18.00
2024-04-05T11:17:15.661Z,17.90
2024-04-05T11:18:15.668Z,18.60
2024-04-05T11:19:15.661Z,18.30
2024-04-05T11:20:15.670Z,18.00
2024-04-05T11:21:15.676Z,18.00
2024-04-05T11:22:15.695Z,18.40
2024-04-05T11:23:15.683Z,18.70
2024-04-05T11:24:15.695Z,18.00
2024-04-05T11:25:15.724Z,17.70
2024-04-05T11:26:15.702Z,18.00
2024-04-05T11:27:15.732Z,17.80
2024-04-05T11:28:15.714Z,17.20
2024-04-05T11:29:15.728Z,17.50
2024-04-05T11:30:15.738Z,17.90
2024-04-05T11:31:15.731Z,17.70
2024-04-05T11:32:15.731Z,17.90
2024-04-05T11:33:15.751Z,18.50
2024-04-05T11:34:15.743Z,17.30
2024-04-05T11:35:15.752Z,18.20
2024-04-05T11:36:15.769Z,17.30
2024-04-05T11:37:15.770Z,17.10
2024-04-05T11:38:15.790Z,18.10
2024-04-05T11:39:15.782Z,18.40
2024-04-05T11:40:25.881Z,18.20
2024-04-05T11:41:15.789Z,17.70
2024-04-05T11:42:15.791Z,17.50
2024-04-05T11:43:15.818Z,17.20
2024-04-05T11:44:15.823Z,17.40
2024-04-05T11:45:15.816Z,17.50
2024-04-05T11:46:15.858Z,17.10
2024-04-05T11:47:15.840Z,17.20
2024-04-05T11:48:15.843Z,17.00
2024-04-05T11:49:15.854Z,17.10
2024-04-05T11:50:15.851Z,16.50
2024-04-05T11:51:15.859Z,17.30
2024-04-05T11:52:15.857Z,16.20
2024-04-05T11:53:15.878Z,17.00
2024-04-05T11:54:15.884Z,16.90
2024-04-05T11:55:15.892Z,16.30
2024-04-05T11:56:15.879Z,16.90
2024-04-05T11:57:15.891Z,16.60
2024-04-05T11:58:15.891Z,17.30
2024-04-05T11:59:15.916Z,17.30
2024-04-05T12:00:15.911Z,17.30
2024-04-05T12:01:15.909Z,16.90
2024-04-05T12:02:15.916Z,16.80
2024-04-05T12:03:15.924Z,17.80
2024-04-05T12:04:15.922Z,18.50
2024-04-05T12:05:15.935Z,18.00
2024-04-05T12:06:15.927Z,18.70
2024-04-05T12:07:15.935Z,18.50
2024-04-05T12:08:15.938Z,17.60
2024-04-05T12:09:15.944Z,18.00
2024-04-05T12:10:15.962Z,18.40
2024-04-05T12:11:15.951Z,17.70
2024-04-05T12:12:15.959Z,18.70
2024-04-05T12:13:15.962Z,18.30
2024-04-05T12:14:18.085Z,18.70
2024-04-05T12:15:15.996Z,18.90
2024-04-05T12:16:15.984Z,18.30
2024-04-05T12:17:15.986Z,17.90
2024-04-05T12:18:15.983Z,18.50
2024-04-05T12:19:15.995Z,17.80
2024-04-05T12:20:16.010Z,16.80
2024-04-05T12:21:16.024Z,17.20
2024-04-05T12:22:16.018Z,16.80
2024-04-05T12:23:16.018Z,17.20
2024-04-05T12:24:16.035Z,17.40
2024-04-05T12:25:16.024Z,17.00
2024-04-05T12:26:16.862Z,17.00
2024-04-05T12:27:17.184Z,17.80
2024-04-05T12:28:16.060Z,16.90
2024-04-05T12:29:16.045Z,18.10
2024-04-05T12:30:16.051Z,17.20
2024-04-05T12:31:16.066Z,17.10
2024-04-05T12:32:16.065Z,17.60
2024-04-05T12:33:16.061Z,17.60
2024-04-05T12:34:16.086Z,18.00
2024-04-05T12:35:16.074Z,17.90
2024-04-05T12:36:16.080Z,18.60
2024-04-05T12:37:16.094Z,17.30
2024-04-05T12:38:30.856Z,17.30
2024-04-05T12:39:16.091Z,16.60
2024-04-05T12:40:16.097Z,17.20
2024-04-05T12:41:16.094Z,17.30
2024-04-05T12:42:16.097Z,17.70
2024-04-05T12:43:16.105Z,17.60
2024-04-05T12:44:19.024Z,17.30
2024-04-05T12:45:16.113Z,17.10
2024-04-05T12:46:16.126Z,16.80
2024-04-05T12:47:16.125Z,16.90
2024-04-05T12:48:16.126Z,17.20
2024-04-05T12:49:16.130Z,17.20
2024-04-05T12:50:19.674Z,17.00
2024-04-05T12:51:16.136Z,16.90
2024-04-05T12:52:16.140Z,17.10